Time;durP1;ratioP1;P1;durP2;ratioP2;P2;SDS_P1;SDS_P2;PMS_P1;PMS_P2;Temp;Humidity;BMP_temperature;BMP_pressure;BME280_temperature;BME280_humidity;BME280_pressure;Samples;Min_cycle;Max_cycle;Signal;HPM_P1;HPM_P2
2022/03/25 00:00:16;;;;;;;22.97;17.40;;;;;;;;;;5020860;28;20274;-79
2022/03/25 00:02:44;;;;;;;22.27;16.33;;;;;;;;;;5026283;28;20233;-79
2022/03/25 00:05:11;;;;;;;23.93;17.43;;;;;;;;;;5023438;28;20202;-79
2022/03/25 00:07:39;;;;;;;20.27;16.87;;;;;;;;;;5017731;28;20226;-79
2022/03/25 00:10:06;;;;;;;22.43;16.37;;;;;;;;;;5017217;28;20202;-79
2022/03/25 00:12:34;;;;;;;21.87;15.90;;;;;;;;;;5015996;28;20202;-79
2022/03/25 00:15:02;;;;;;;21.77;16.87;;;;;;;;;;5017587;28;20206;-79
2022/03/25 00:17:30;;;;;;;23.80;17.57;;;;;;;;;;5017753;28;20253;-79
2022/03/25 00:19:57;;;;;;;25.53;18.47;;;;;;;;;;5017506;28;20202;-79
2022/03/25 00:22:24;;;;;;;22.87;17.37;;;;;;;;;;5017352;28;20235;-79
2022/03/25 00:24:52;;;;;;;25.70;17.00;;;;;;;;;;5017113;28;20210;-79
2022/03/25 00:27:19;;;;;;;22.47;16.97;;;;;;;;;;5016903;28;20234;-79
2022/03/25 00:29:46;;;;;;;21.60;16.63;;;;;;;;;;5014616;28;20214;-78
2022/03/25 00:32:16;;;;;;;23.23;17.23;;;;;;;;;;5017134;28;20285;-79
2022/03/25 00:34:43;;;;;;;20.83;15.63;;;;;;;;;;5015990;28;20261;-77
2022/03/25 00:37:11;;;;;;;20.37;16.23;;;;;;;;;;5014436;28;20210;-79
2022/03/25 00:39:38;;;;;;;26.13;17.57;;;;;;;;;;5014589;28;20210;-79
2022/03/25 00:42:06;;;;;;;24.33;17.17;;;;;;;;;;5016704;28;20260;-80
2022/03/25 00:44:33;;;;;;;21.23;17.33;;;;;;;;;;5017942;28;20206;-79
2022/03/25 00:47:00;;;;;;;23.77;17.37;;;;;;;;;;5017937;28;20280;-79
2022/03/25 00:49:29;;;;;;;24.27;18.27;;;;;;;;;;5015031;28;20237;-79
2022/03/25 00:51:58;;;;;;;22.83;17.60;;;;;;;;;;5017440;28;20214;-79
2022/03/25 00:54:25;;;;;;;24.63;17.83;;;;;;;;;;5014888;28;20215;-79
2022/03/25 00:56:52;;;;;;;26.07;17.93;;;;;;;;;;5013662;28;20202;-79
2022/03/25 00:59:20;;;;;;;22.63;17.17;;;;;;;;;;5016430;28;20313;-79
2022/03/25 01:01:47;;;;;;;23.37;17.53;;;;;;;;;;5016852;28;20203;-79
2022/03/25 01:04:14;;;;;;;20.60;16.60;;;;;;;;;;5016303;28;20206;-79
2022/03/25 01:06:43;;;;;;;24.33;16.93;;;;;;;;;;5016336;28;20293;-79
2022/03/25 01:09:10;;;;;;;24.83;17.63;;;;;;;;;;5016141;28;20290;-79
2022/03/25 01:11:38;;;;;;;22.23;17.47;;;;;;;;;;5018473;28;20289;-79
2022/03/25 01:14:06;;;;;;;23.30;17.30;;;;;;;;;;5017019;28;20229;-79
2022/03/25 01:16:34;;;;;;;25.17;17.57;;;;;;;;;;5017496;28;20208;-79
2022/03/25 01:19:01;;;;;;;23.43;17.13;;;;;;;;;;5013838;28;20238;-79
2022/03/25 01:21:29;;;;;;;24.33;16.07;;;;;;;;;;5013239;28;20214;-79
2022/03/25 01:23:57;;;;;;;21.83;16.20;;;;;;;;;;5011536;28;20249;-77
2022/03/25 01:26:25;;;;;;;22.07;15.37;;;;;;;;;;5011524;28;20209;-79
2022/03/25 01:28:52;;;;;;;23.97;16.77;;;;;;;;;;5017687;28;20231;-79
2022/03/25 01:31:19;;;;;;;19.53;15.93;;;;;;;;;;5014458;28;20234;-79
2022/03/25 01:33:47;;;;;;;22.50;16.43;;;;;;;;;;5017884;28;20238;-79
2022/03/25 01:36:14;;;;;;;22.73;17.07;;;;;;;;;;5016128;28;20223;-79
2022/03/25 01:38:41;;;;;;;20.50;16.37;;;;;;;;;;5021540;28;20278;-79
2022/03/25 01:41:10;;;;;;;24.93;17.50;;;;;;;;;;5021811;28;20225;-79
2022/03/25 01:43:38;;;;;;;22.97;16.17;;;;;;;;;;5022754;28;20198;-79
2022/03/25 01:46:05;;;;;;;23.17;16.10;;;;;;;;;;5022674;28;20202;-79
2022/03/25 01:48:32;;;;;;;19.93;16.27;;;;;;;;;;5022450;28;20226;-79
2022/03/25 01:51:02;;;;;;;21.23;16.63;;;;;;;;;;5022125;28;20214;-79
2022/03/25 01:53:30;;;;;;;21.67;16.43;;;;;;;;;;5017355;28;20268;-79
2022/03/25 01:55:58;;;;;;;21.30;15.93;;;;;;;;;;5019712;28;20215;-79
2022/03/25 01:58:28;;;;;;;24.50;17.60;;;;;;;;;;5020506;28;20349;-79
2022/03/25 02:00:55;;;;;;;25.53;18.03;;;;;;;;;;5018999;28;20286;-79
2022/03/25 02:03:23;;;;;;;21.80;16.40;;;;;;;;;;5020199;28;20221;-79
2022/03/25 02:05:50;;;;;;;26.50;17.33;;;;;;;;;;5015794;28;20204;-79
2022/03/25 02:08:18;;;;;;;21.57;16.83;;;;;;;;;;5019050;28;20692;-79
2022/03/25 02:10:45;;;;;;;22.43;16.73;;;;;;;;;;5023104;28;20292;-79
2022/03/25 02:13:13;;;;;;;26.70;17.03;;;;;;;;;;5019384;28;20287;-79
2022/03/25 02:15:43;;;;;;;22.10;16.23;;;;;;;;;;5016085;28;20282;-79
2022/03/25 02:18:12;;;;;;;22.87;17.10;;;;;;;;;;5012864;23;20229;-80
2022/03/25 02:20:40;;;;;;;19.90;16.37;;;;;;;;;;4954936;28;20616;-80
2022/03/25 02:23:09;;;;;;;25.57;17.37;;;;;;;;;;4991193;28;20208;-80
2022/03/25 02:25:37;;;;;;;25.07;18.00;;;;;;;;;;4953045;28;20245;-80
2022/03/25 02:28:05;;;;;;;26.10;18.17;;;;;;;;;;4953748;28;20240;-80
2022/03/25 02:30:33;;;;;;;21.07;16.57;;;;;;;;;;4953763;28;20292;-80
2022/03/25 02:33:01;;;;;;;22.40;17.43;;;;;;;;;;4954718;28;20208;-80
2022/03/25 02:35:41;;;;;;;22.63;16.67;;;;;;;;;;4953494;28;20303;-80
2022/03/25 02:38:10;;;;;;;22.33;16.97;;;;;;;;;;4953189;29;20224;-80
2022/03/25 02:40:38;;;;;;;21.47;16.50;;;;;;;;;;4952033;28;20211;-80
2022/03/25 02:43:06;;;;;;;20.77;15.70;;;;;;;;;;4956115;28;20218;-81
2022/03/25 02:45:33;;;;;;;25.27;16.97;;;;;;;;;;4954443;28;20204;-80
2022/03/25 02:48:02;;;;;;;20.73;15.93;;;;;;;;;;4956386;28;20346;-81
2022/03/25 02:50:30;;;;;;;24.03;16.97;;;;;;;;;;4956463;28;20227;-81
2022/03/25 02:52:57;;;;;;;23.23;17.67;;;;;;;;;;4955869;28;20295;-81
2022/03/25 02:55:26;;;;;;;21.27;16.93;;;;;;;;;;4955162;28;20212;-81
2022/03/25 02:57:54;;;;;;;22.23;17.00;;;;;;;;;;4956140;28;20295;-81
2022/03/25 03:00:21;;;;;;;24.67;17.30;;;;;;;;;;4952991;28;20209;-80
2022/03/25 03:02:49;;;;;;;27.63;18.27;;;;;;;;;;4955959;28;20244;-81
2022/03/25 03:05:17;;;;;;;22.57;17.27;;;;;;;;;;4954867;28;20276;-81
2022/03/25 03:07:46;;;;;;;24.93;17.87;;;;;;;;;;4954582;28;20221;-81
2022/03/25 03:10:13;;;;;;;23.97;17.27;;;;;;;;;;4955142;28;20215;-80
2022/03/25 03:12:42;;;;;;;21.57;15.97;;;;;;;;;;4952169;28;20340;-81
2022/03/25 03:15:10;;;;;;;24.53;17.03;;;;;;;;;;4955642;28;20209;-80
2022/03/25 03:17:37;;;;;;;23.30;17.70;;;;;;;;;;4954327;28;20236;-80
2022/03/25 03:20:05;;;;;;;23.27;17.13;;;;;;;;;;4955094;28;20271;-80
2022/03/25 03:22:33;;;;;;;22.47;17.00;;;;;;;;;;4954577;28;20208;-80
2022/03/25 03:25:01;;;;;;;26.07;17.67;;;;;;;;;;4954672;28;20205;-81
2022/03/25 03:27:28;;;;;;;24.03;17.17;;;;;;;;;;4952265;28;20204;-80
2022/03/25 03:29:56;;;;;;;21.87;17.17;;;;;;;;;;4954920;28;20266;-80
2022/03/25 03:32:23;;;;;;;24.33;17.13;;;;;;;;;;4954333;28;20209;-81
2022/03/25 03:34:51;;;;;;;23.10;17.60;;;;;;;;;;4951465;28;20196;-80
2022/03/25 03:37:18;;;;;;;23.77;17.50;;;;;;;;;;4954631;28;20209;-80
2022/03/25 03:39:45;;;;;;;25.37;17.90;;;;;;;;;;4951904;28;20227;-79
2022/03/25 03:42:12;;;;;;;21.67;17.07;;;;;;;;;;4954662;28;20274;-80
2022/03/25 03:44:40;;;;;;;22.73;17.13;;;;;;;;;;4952235;28;20299;-80
2022/03/25 03:47:09;;;;;;;25.27;17.67;;;;;;;;;;4953780;28;20212;-80
2022/03/25 03:49:36;;;;;;;23.23;16.87;;;;;;;;;;4956507;28;20311;-80
2022/03/25 03:52:04;;;;;;;24.40;16.70;;;;;;;;;;4954199;28;20204;-80
2022/03/25 03:54:32;;;;;;;23.90;16.63;;;;;;;;;;4951255;28;20197;-81
2022/03/25 03:56:59;;;;;;;23.10;16.97;;;;;;;;;;4970727;28;20213;-81
2022/03/25 03:59:26;;;;;;;21.83;16.30;;;;;;;;;;4952245;28;20308;-80
2022/03/25 04:01:54;;;;;;;25.00;16.33;;;;;;;;;;4960458;28;20201;-81
2022/03/25 04:04:22;;;;;;;24.10;17.33;;;;;;;;;;4957451;28;20504;-81
2022/03/25 04:06:49;;;;;;;24.83;17.77;;;;;;;;;;4965519;28;20216;-81
2022/03/25 04:09:17;;;;;;;23.47;17.00;;;;;;;;;;4954502;28;20268;-80
2022/03/25 04:11:44;;;;;;;24.70;17.67;;;;;;;;;;4954407;28;20248;-81
2022/03/25 04:14:11;;;;;;;23.30;17.70;;;;;;;;;;4954017;28;20764;-79
2022/03/25 04:16:38;;;;;;;28.30;17.30;;;;;;;;;;4954582;28;20251;-80
2022/03/25 04:19:06;;;;;;;24.37;16.73;;;;;;;;;;4960756;28;20264;-81
2022/03/25 04:21:34;;;;;;;24.53;17.37;;;;;;;;;;4953006;28;20216;-81
2022/03/25 04:24:02;;;;;;;22.97;16.90;;;;;;;;;;4953669;29;20275;-80
2022/03/25 04:26:29;;;;;;;24.63;18.10;;;;;;;;;;4950041;28;20243;-80
2022/03/25 04:28:56;;;;;;;25.43;17.70;;;;;;;;;;4953178;29;20673;-80
2022/03/25 04:31:23;;;;;;;29.27;18.30;;;;;;;;;;4952158;29;20236;-81
2022/03/25 04:33:51;;;;;;;28.33;18.37;;;;;;;;;;4954817;29;20228;-80
2022/03/25 04:36:18;;;;;;;26.70;18.63;;;;;;;;;;4953671;29;20204;-81
2022/03/25 04:38:47;;;;;;;25.83;17.70;;;;;;;;;;4948911;28;20232;-80
2022/03/25 04:41:14;;;;;;;26.10;18.00;;;;;;;;;;4949436;28;20244;-80
2022/03/25 04:43:41;;;;;;;24.20;17.00;;;;;;;;;;4952022;29;20227;-80
2022/03/25 04:46:09;;;;;;;46.93;19.50;;;;;;;;;;4956181;28;20205;-79
2022/03/25 04:48:38;;;;;;;26.47;18.60;;;;;;;;;;4953447;28;20241;-80
2022/03/25 04:51:06;;;;;;;25.13;18.43;;;;;;;;;;4953795;28;20200;-80
2022/03/25 04:53:34;;;;;;;28.37;18.70;;;;;;;;;;4952827;28;20303;-81
2022/03/25 04:56:03;;;;;;;25.10;17.90;;;;;;;;;;4943433;28;20288;-80
2022/03/25 04:58:30;;;;;;;26.53;18.20;;;;;;;;;;4942629;28;20247;-81
2022/03/25 05:00:57;;;;;;;24.97;17.27;;;;;;;;;;4951916;28;20292;-80
2022/03/25 05:03:24;;;;;;;25.77;17.97;;;;;;;;;;4968613;28;20211;-80
2022/03/25 05:05:52;;;;;;;27.23;18.17;;;;;;;;;;4954700;28;20262;-80
2022/03/25 05:08:19;;;;;;;23.10;16.73;;;;;;;;;;4955090;28;20320;-80
2022/03/25 05:10:46;;;;;;;26.30;18.00;;;;;;;;;;4950524;28;20240;-81
2022/03/25 05:13:15;;;;;;;25.33;17.33;;;;;;;;;;4953079;28;20655;-80
2022/03/25 05:15:42;;;;;;;26.33;18.27;;;;;;;;;;4953515;28;20232;-80
2022/03/25 05:18:09;;;;;;;26.80;18.77;;;;;;;;;;4953144;28;20234;-80
2022/03/25 05:20:37;;;;;;;22.53;16.60;;;;;;;;;;4952766;29;20224;-80
2022/03/25 05:23:04;;;;;;;23.60;16.70;;;;;;;;;;4952827;28;20262;-81
2022/03/25 05:25:32;;;;;;;25.80;17.77;;;;;;;;;;4952598;28;20261;-80
2022/03/25 05:27:59;;;;;;;25.07;17.83;;;;;;;;;;4953232;29;20295;-80
2022/03/25 05:30:29;;;;;;;27.43;18.67;;;;;;;;;;4952215;28;20724;-80
2022/03/25 05:32:57;;;;;;;26.93;17.60;;;;;;;;;;4953488;28;20255;-80
2022/03/25 05:35:25;;;;;;;24.63;16.67;;;;;;;;;;4950538;28;20213;-80
2022/03/25 05:37:53;;;;;;;27.60;18.23;;;;;;;;;;4951592;29;20215;-81
2022/03/25 05:40:22;;;;;;;27.27;18.37;;;;;;;;;;4951570;28;20236;-80
2022/03/25 05:42:49;;;;;;;31.17;18.17;;;;;;;;;;4947638;28;20288;-80
2022/03/25 05:45:18;;;;;;;26.37;17.47;;;;;;;;;;4948278;28;20201;-81
2022/03/25 05:50:28;;;;;;;25.93;18.07;;;;;;;;;;4944119;28;20205;-80
2022/03/25 05:52:55;;;;;;;29.07;18.67;;;;;;;;;;4947868;28;20197;-79
2022/03/25 05:55:38;;;;;;;27.10;17.93;;;;;;;;;;4948666;28;20213;-79
2022/03/25 05:58:06;;;;;;;27.77;18.60;;;;;;;;;;4942717;28;20253;-79
2022/03/25 06:00:34;;;;;;;26.50;17.53;;;;;;;;;;4953575;28;20244;-79
2022/03/25 06:03:03;;;;;;;27.43;18.57;;;;;;;;;;4947274;28;20247;-79
2022/03/25 06:05:30;;;;;;;29.47;19.47;;;;;;;;;;4944349;28;20241;-79
2022/03/25 06:07:57;;;;;;;26.63;19.30;;;;;;;;;;4946878;28;20205;-79
2022/03/25 06:13:36;;;;;;;28.87;18.80;;;;;;;;;;5010269;28;20218;-82
2022/03/25 06:16:04;;;;;;;33.30;20.20;;;;;;;;;;4995915;28;20209;-79
2022/03/25 06:18:38;;;;;;;39.87;20.20;;;;;;;;;;4951899;28;20232;-79
2022/03/25 06:21:05;;;;;;;32.43;20.33;;;;;;;;;;4947217;28;20213;-79
2022/03/25 06:23:32;;;;;;;32.43;19.57;;;;;;;;;;4946304;28;20259;-78
2022/03/25 06:26:05;;;;;;;31.33;18.67;;;;;;;;;;4955257;28;20205;-79
2022/03/25 06:28:32;;;;;;;30.27;18.63;;;;;;;;;;4948632;28;20316;-79
2022/03/25 06:30:59;;;;;;;26.60;19.03;;;;;;;;;;4954451;28;20278;-79
2022/03/25 06:33:30;;;;;;;30.70;18.70;;;;;;;;;;4954983;28;20209;-79
2022/03/25 06:35:58;;;;;;;28.33;18.97;;;;;;;;;;4955554;28;20213;-79
2022/03/25 06:38:25;;;;;;;28.43;18.47;;;;;;;;;;4966196;28;20209;-79
2022/03/25 06:40:53;;;;;;;28.63;18.37;;;;;;;;;;4964135;28;20279;-79
2022/03/25 06:43:20;;;;;;;29.13;19.13;;;;;;;;;;4954147;28;20277;-79
2022/03/25 06:45:47;;;;;;;29.13;18.03;;;;;;;;;;4959132;28;20299;-79
2022/03/25 06:48:14;;;;;;;28.60;17.60;;;;;;;;;;4954353;28;20236;-79
2022/03/25 06:50:41;;;;;;;25.63;18.67;;;;;;;;;;4955357;28;20267;-80
2022/03/25 06:53:11;;;;;;;21.77;16.57;;;;;;;;;;4949646;28;20266;-79
2022/03/25 06:55:39;;;;;;;27.97;19.43;;;;;;;;;;4945412;28;20204;-79
2022/03/25 06:58:08;;;;;;;24.13;17.13;;;;;;;;;;4948775;28;20225;-79
2022/03/25 07:00:36;;;;;;;25.17;19.23;;;;;;;;;;4953670;28;20586;-79
2022/03/25 07:03:04;;;;;;;25.13;17.07;;;;;;;;;;4954403;28;20212;-79
2022/03/25 07:05:36;;;;;;;24.33;18.20;;;;;;;;;;4955501;28;20232;-79
2022/03/25 07:08:04;;;;;;;25.07;18.60;;;;;;;;;;4949418;28;20212;-79
2022/03/25 07:10:33;;;;;;;24.13;19.07;;;;;;;;;;4954195;28;20233;-79
2022/03/25 07:13:00;;;;;;;26.30;19.00;;;;;;;;;;4955061;28;20251;-79
2022/03/25 07:15:28;;;;;;;20.70;16.53;;;;;;;;;;4955813;28;20208;-79
2022/03/25 07:17:58;;;;;;;26.73;18.60;;;;;;;;;;4953812;28;20205;-79
2022/03/25 07:20:27;;;;;;;21.77;17.03;;;;;;;;;;4953233;28;20205;-79
2022/03/25 07:22:55;;;;;;;24.97;18.40;;;;;;;;;;4953621;28;20205;-79
2022/03/25 07:25:22;;;;;;;27.70;20.63;;;;;;;;;;4953563;28;20251;-78
2022/03/25 07:27:51;;;;;;;23.90;18.07;;;;;;;;;;4952625;28;20215;-79
2022/03/25 07:30:18;;;;;;;25.33;19.23;;;;;;;;;;4949562;28;20233;-79
2022/03/25 07:32:46;;;;;;;27.17;19.37;;;;;;;;;;4953764;28;20224;-79
2022/03/25 07:35:14;;;;;;;26.73;18.47;;;;;;;;;;4953193;28;20247;-79
2022/03/25 07:37:44;;;;;;;25.27;19.50;;;;;;;;;;4949376;28;20243;-79
2022/03/25 07:40:13;;;;;;;24.10;18.67;;;;;;;;;;4953049;28;20205;-79
2022/03/25 07:42:40;;;;;;;25.13;19.10;;;;;;;;;;4952789;28;20270;-79
2022/03/25 07:45:10;;;;;;;34.13;20.63;;;;;;;;;;4958494;28;20208;-79
2022/03/25 07:47:40;;;;;;;29.00;21.23;;;;;;;;;;4953002;28;20307;-79
2022/03/25 07:50:08;;;;;;;34.67;20.83;;;;;;;;;;4952529;28;20225;-79
2022/03/25 07:52:38;;;;;;;32.10;21.13;;;;;;;;;;4952377;28;20247;-79
2022/03/25 07:55:06;;;;;;;32.07;20.20;;;;;;;;;;4952549;28;20304;-79
2022/03/25 07:57:34;;;;;;;32.70;21.40;;;;;;;;;;4952009;28;20304;-79
2022/03/25 08:00:02;;;;;;;34.50;22.27;;;;;;;;;;4951576;28;20235;-79
2022/03/25 08:02:32;;;;;;;36.43;22.53;;;;;;;;;;4952464;28;20642;-79
2022/03/25 08:04:59;;;;;;;31.83;20.10;;;;;;;;;;4952452;28;20212;-79
2022/03/25 08:07:26;;;;;;;30.63;20.23;;;;;;;;;;4951732;28;20624;-79
2022/03/25 08:09:53;;;;;;;32.83;21.73;;;;;;;;;;4951655;28;20233;-79
2022/03/25 08:12:21;;;;;;;31.20;21.13;;;;;;;;;;4952307;28;20209;-79
2022/03/25 08:14:52;;;;;;;30.10;21.30;;;;;;;;;;4949237;28;20232;-79
2022/03/25 08:17:20;;;;;;;28.53;20.30;;;;;;;;;;4950412;28;20209;-79
2022/03/25 08:19:49;;;;;;;33.00;20.50;;;;;;;;;;5021370;22;20229;-75
2022/03/25 08:22:17;;;;;;;28.00;19.70;;;;;;;;;;5031925;28;20252;-76
2022/03/25 08:30:15;;;;;;;26.20;20.43;;;;;;;;;;5028127;28;20257;-76
2022/03/25 08:32:43;;;;;;;28.53;19.87;;;;;;;;;;5012138;28;20207;-76
2022/03/25 08:35:12;;;;;;;27.77;19.77;;;;;;;;;;5011717;28;20308;-76
2022/03/25 08:37:39;;;;;;;27.20;19.80;;;;;;;;;;5031195;28;20216;-76
2022/03/25 08:40:06;;;;;;;34.17;22.47;;;;;;;;;;5031279;28;20228;-76
2022/03/25 08:42:34;;;;;;;33.97;22.83;;;;;;;;;;5018698;28;20206;-76
2022/03/25 08:45:01;;;;;;;27.70;21.13;;;;;;;;;;5012301;28;20298;-76
2022/03/25 08:47:28;;;;;;;27.47;21.70;;;;;;;;;;5011404;28;20213;-75
2022/03/25 08:49:55;;;;;;;25.70;19.50;;;;;;;;;;5011409;28;20316;-76
2022/03/25 08:52:26;;;;;;;25.47;18.57;;;;;;;;;;5016209;28;20249;-76
2022/03/25 08:54:55;;;;;;;28.23;19.50;;;;;;;;;;5012419;28;20341;-76
2022/03/25 08:57:22;;;;;;;28.63;20.67;;;;;;;;;;5011992;28;20212;-76
2022/03/25 08:59:49;;;;;;;27.93;21.67;;;;;;;;;;5011846;28;20289;-76
2022/03/25 09:02:17;;;;;;;28.47;19.97;;;;;;;;;;5015854;28;20241;-76
2022/03/25 09:04:44;;;;;;;28.80;20.93;;;;;;;;;;5011827;28;20205;-77
2022/03/25 09:07:12;;;;;;;25.47;20.07;;;;;;;;;;5011851;28;20213;-76
2022/03/25 09:09:41;;;;;;;25.83;19.90;;;;;;;;;;5011579;28;20334;-76
2022/03/25 09:12:09;;;;;;;29.97;23.03;;;;;;;;;;5011470;28;20217;-76
2022/03/25 09:14:36;;;;;;;31.23;21.17;;;;;;;;;;5011742;28;20261;-76
2022/03/25 09:17:03;;;;;;;27.00;21.10;;;;;;;;;;5011828;28;20293;-76
2022/03/25 09:19:30;;;;;;;29.97;22.30;;;;;;;;;;5014750;28;20261;-76
2022/03/25 09:21:58;;;;;;;30.70;23.13;;;;;;;;;;5015999;28;20193;-76
2022/03/25 09:24:26;;;;;;;31.30;23.13;;;;;;;;;;5013031;28;20634;-76
2022/03/25 09:26:54;;;;;;;28.90;22.07;;;;;;;;;;5011415;28;20210;-76
2022/03/25 09:29:21;;;;;;;33.93;23.60;;;;;;;;;;5011301;28;20257;-76
2022/03/25 09:31:49;;;;;;;29.63;21.27;;;;;;;;;;5011648;28;20249;-75
2022/03/25 09:37:00;;;;;;;28.27;21.80;;;;;;;;;;4981340;28;20297;-76
2022/03/25 09:39:27;;;;;;;27.87;21.37;;;;;;;;;;5012128;28;20258;-77
2022/03/25 09:41:56;;;;;;;32.47;23.03;;;;;;;;;;5011367;28;20237;-77
2022/03/25 09:44:23;;;;;;;31.00;24.03;;;;;;;;;;5005073;28;20297;-77
2022/03/25 09:46:50;;;;;;;30.87;23.53;;;;;;;;;;5010296;28;20237;-77
2022/03/25 09:49:20;;;;;;;27.63;22.50;;;;;;;;;;5008643;28;20313;-76
2022/03/25 09:51:47;;;;;;;29.83;22.67;;;;;;;;;;5018092;28;20236;-76
2022/03/25 09:54:16;;;;;;;28.67;22.50;;;;;;;;;;5011330;28;20237;-77
2022/03/25 09:56:43;;;;;;;31.00;24.47;;;;;;;;;;5012176;28;20206;-77
2022/03/25 09:59:18;;;;;;;31.33;24.10;;;;;;;;;;5007687;28;20277;-76
2022/03/25 10:01:45;;;;;;;30.30;24.83;;;;;;;;;;5009567;28;20202;-76
2022/03/25 10:04:27;;;;;;;31.67;24.10;;;;;;;;;;5014376;28;20293;-76
2022/03/25 10:06:54;;;;;;;31.63;23.77;;;;;;;;;;5013143;28;20218;-76
2022/03/25 10:09:22;;;;;;;28.43;22.63;;;;;;;;;;5033760;28;20321;-76
2022/03/25 10:11:50;;;;;;;27.33;22.77;;;;;;;;;;5034143;28;20213;-76
2022/03/25 10:14:19;;;;;;;27.47;22.63;;;;;;;;;;5033758;28;20216;-76
2022/03/25 10:16:48;;;;;;;27.63;22.67;;;;;;;;;;5007501;28;20289;-76
2022/03/25 10:19:18;;;;;;;30.67;23.23;;;;;;;;;;5012600;28;20321;-76
2022/03/25 10:21:52;;;;;;;27.63;23.53;;;;;;;;;;5026224;28;20199;-76
2022/03/25 10:24:36;;;;;;;26.93;22.40;;;;;;;;;;5016525;28;20256;-76
2022/03/25 10:27:05;;;;;;;27.53;22.10;;;;;;;;;;5025914;28;20220;-76
2022/03/25 10:29:34;;;;;;;28.80;23.00;;;;;;;;;;5027214;28;20221;-76
2022/03/25 10:32:06;;;;;;;27.50;22.73;;;;;;;;;;5021907;28;20210;-76
2022/03/25 10:34:33;;;;;;;26.20;21.50;;;;;;;;;;5015500;28;20593;-76
2022/03/25 10:37:01;;;;;;;33.60;24.73;;;;;;;;;;5014945;28;20235;-76
2022/03/25 10:39:28;;;;;;;30.73;24.95;;;;;;;;;;5015025;28;20227;-76
2022/03/25 10:41:59;;;;;;;27.45;23.23;;;;;;;;;;5027355;28;20238;-76
2022/03/25 10:44:37;;;;;;;29.15;23.52;;;;;;;;;;5014386;28;20688;-76
2022/03/25 10:47:22;;;;;;;27.27;22.75;;;;;;;;;;5014544;28;20237;-77
2022/03/25 10:49:50;;;;;;;28.92;23.10;;;;;;;;;;5021390;28;20261;-76
2022/03/25 10:52:24;;;;;;;25.67;21.85;;;;;;;;;;5015794;28;20244;-76
2022/03/25 10:54:51;;;;;;;27.35;22.98;;;;;;;;;;5021248;28;20234;-76
2022/03/25 10:57:23;;;;;;;30.13;23.50;;;;;;;;;;5012306;28;20205;-78
2022/03/25 11:00:01;;;;;;;26.15;22.58;;;;;;;;;;5014233;28;20218;-74
2022/03/25 11:02:28;;;;;;;25.25;20.77;;;;;;;;;;5025452;28;20202;-75
2022/03/25 11:04:56;;;;;;;25.42;21.73;;;;;;;;;;5016079;28;20234;-78
2022/03/25 11:07:23;;;;;;;28.15;22.27;;;;;;;;;;5025910;28;20209;-76
2022/03/25 11:09:51;;;;;;;25.92;22.42;;;;;;;;;;5020657;28;20313;-76
2022/03/25 11:12:19;;;;;;;25.90;21.70;;;;;;;;;;5026697;28;20206;-75
2022/03/25 11:14:46;;;;;;;26.17;22.35;;;;;;;;;;5026049;28;20203;-77
2022/03/25 11:17:15;;;;;;;26.30;22.23;;;;;;;;;;5021540;28;20260;-76
2022/03/25 11:19:45;;;;;;;25.77;21.58;;;;;;;;;;5019873;28;20743;-76
2022/03/25 11:22:13;;;;;;;26.02;21.63;;;;;;;;;;5027132;28;20199;-76
2022/03/25 11:24:42;;;;;;;25.00;21.85;;;;;;;;;;5018420;28;20233;-78
2022/03/25 11:27:15;;;;;;;68.63;60.65;;;;;;;;;;5018324;28;20214;-78
2022/03/25 11:29:45;;;;;;;25.55;22.02;;;;;;;;;;5022950;28;20312;-79
2022/03/25 11:32:12;;;;;;;25.77;21.35;;;;;;;;;;5012921;28;20233;-79
2022/03/25 11:34:44;;;;;;;25.33;21.98;;;;;;;;;;5029940;28;20210;-77
2022/03/25 11:37:19;;;;;;;23.90;19.95;;;;;;;;;;5030471;28;20209;-77
2022/03/25 11:39:46;;;;;;;22.35;19.35;;;;;;;;;;5013955;28;20250;-77
2022/03/25 11:42:28;;;;;;;23.08;19.15;;;;;;;;;;5020239;28;20218;-77
2022/03/25 11:45:10;;;;;;;21.30;19.00;;;;;;;;;;5017938;28;20209;-77
2022/03/25 11:47:37;;;;;;;20.33;18.05;;;;;;;;;;5015557;28;20265;-77
2022/03/25 11:50:19;;;;;;;21.63;18.65;;;;;;;;;;5009752;28;20218;-77
2022/03/25 11:52:47;;;;;;;23.33;19.33;;;;;;;;;;5015048;28;20224;-77
2022/03/25 11:55:15;;;;;;;24.92;20.40;;;;;;;;;;5012873;28;20234;-77
2022/03/25 11:57:42;;;;;;;23.30;19.67;;;;;;;;;;5019455;28;20202;-77
2022/03/25 12:00:11;;;;;;;23.20;20.25;;;;;;;;;;5012019;28;20222;-77
2022/03/25 12:02:38;;;;;;;22.20;19.85;;;;;;;;;;5012973;28;20214;-77
2022/03/25 12:05:07;;;;;;;24.33;19.45;;;;;;;;;;5024527;28;20229;-77
2022/03/25 12:07:34;;;;;;;21.90;19.02;;;;;;;;;;5028521;28;20209;-77
2022/03/25 12:10:03;;;;;;;23.20;20.58;;;;;;;;;;5014572;28;20232;-76
2022/03/25 12:12:49;;;;;;;23.52;20.05;;;;;;;;;;5019912;28;20199;-77
2022/03/25 12:15:16;;;;;;;22.02;19.60;;;;;;;;;;5008251;28;20665;-77
2022/03/25 12:17:43;;;;;;;22.50;20.10;;;;;;;;;;5010659;28;20227;-76
2022/03/25 12:20:11;;;;;;;22.88;20.40;;;;;;;;;;5009993;28;20228;-76
2022/03/25 12:22:38;;;;;;;23.02;19.13;;;;;;;;;;5008713;28;20198;-76
2022/03/25 12:25:13;;;;;;;21.83;19.52;;;;;;;;;;5012910;28;20265;-76
2022/03/25 12:27:40;;;;;;;23.30;19.63;;;;;;;;;;5014392;28;20203;-76
2022/03/25 12:30:07;;;;;;;20.85;18.65;;;;;;;;;;5030975;28;20230;-76
2022/03/25 12:32:36;;;;;;;20.80;18.55;;;;;;;;;;5029070;28;20289;-77
2022/03/25 12:35:05;;;;;;;23.98;20.02;;;;;;;;;;5013862;28;20210;-76
2022/03/25 12:37:34;;;;;;;23.58;20.52;;;;;;;;;;5030631;28;20619;-76
2022/03/25 12:40:11;;;;;;;19.35;17.35;;;;;;;;;;5026991;28;20230;-76
2022/03/25 12:42:38;;;;;;;20.05;17.65;;;;;;;;;;5031189;28;20205;-76
2022/03/25 12:45:06;;;;;;;19.52;17.48;;;;;;;;;;5020533;28;20197;-76
2022/03/25 12:47:34;;;;;;;24.02;20.58;;;;;;;;;;5014473;28;20206;-76
2022/03/25 12:50:02;;;;;;;22.95;20.45;;;;;;;;;;5014804;28;20264;-76
2022/03/25 12:52:29;;;;;;;23.13;20.55;;;;;;;;;;5030979;28;20231;-76
2022/03/25 12:55:06;;;;;;;22.92;20.33;;;;;;;;;;5018136;28;20274;-78
2022/03/25 12:57:37;;;;;;;24.15;21.50;;;;;;;;;;5021092;28;20245;-77
2022/03/25 13:00:05;;;;;;;25.58;22.25;;;;;;;;;;5020078;28;20253;-78
2022/03/25 13:02:34;;;;;;;24.17;21.58;;;;;;;;;;5021403;28;20209;-77
2022/03/25 13:05:10;;;;;;;23.90;21.27;;;;;;;;;;5026502;28;20220;-77
2022/03/25 13:07:37;;;;;;;25.30;21.27;;;;;;;;;;5028643;28;20229;-78
2022/03/25 13:10:05;;;;;;;24.13;21.52;;;;;;;;;;5012992;28;20229;-75
2022/03/25 13:12:33;;;;;;;24.17;21.55;;;;;;;;;;5011481;28;20708;-75
2022/03/25 13:15:02;;;;;;;24.30;20.65;;;;;;;;;;5012475;28;20233;-77
2022/03/25 13:17:35;;;;;;;25.50;21.08;;;;;;;;;;5030059;28;20288;-76
2022/03/25 13:20:08;;;;;;;21.92;19.38;;;;;;;;;;5023493;28;20649;-76
2022/03/25 13:22:37;;;;;;;23.30;20.13;;;;;;;;;;5011576;28;20222;-76
2022/03/25 13:25:04;;;;;;;23.20;20.00;;;;;;;;;;5011937;28;20199;-76
2022/03/25 13:27:32;;;;;;;23.90;21.35;;;;;;;;;;5011534;28;20310;-76
2022/03/25 13:29:59;;;;;;;27.08;22.50;;;;;;;;;;5011018;28;20222;-76
2022/03/25 13:32:32;;;;;;;24.08;21.27;;;;;;;;;;5028678;28;20257;-76
2022/03/25 13:35:06;;;;;;;22.83;20.45;;;;;;;;;;5014638;28;20292;-77
2022/03/25 13:37:34;;;;;;;22.65;20.13;;;;;;;;;;5029463;28;20197;-76
2022/03/25 13:40:01;;;;;;;26.08;22.55;;;;;;;;;;5028717;28;20230;-76
2022/03/25 13:42:36;;;;;;;23.98;21.40;;;;;;;;;;5015330;28;20203;-76
2022/03/25 13:45:06;;;;;;;24.65;21.25;;;;;;;;;;5018638;28;20289;-75
2022/03/25 13:47:35;;;;;;;22.08;19.33;;;;;;;;;;5030721;28;20206;-75
2022/03/25 13:50:13;;;;;;;20.40;18.17;;;;;;;;;;5020105;28;20229;-79
2022/03/25 13:52:40;;;;;;;20.65;18.40;;;;;;;;;;5029482;28;20233;-77
2022/03/25 13:55:14;;;;;;;23.08;20.27;;;;;;;;;;5027248;28;20224;-78
2022/03/25 13:57:41;;;;;;;23.02;19.63;;;;;;;;;;5016464;28;20217;-78
2022/03/25 14:00:11;;;;;;;22.25;17.90;;;;;;;;;;5018340;28;20230;-77
2022/03/25 14:02:51;;;;;;;21.50;19.20;;;;;;;;;;5026274;28;20213;-76
2022/03/25 14:05:23;;;;;;;22.17;19.67;;;;;;;;;;5027665;28;20232;-76
2022/03/25 14:07:50;;;;;;;23.17;20.48;;;;;;;;;;5035389;28;20202;-77
2022/03/25 14:10:18;;;;;;;27.25;22.35;;;;;;;;;;5009906;28;20226;-76
2022/03/25 14:12:45;;;;;;;28.02;23.25;;;;;;;;;;5007857;28;20313;-75
2022/03/25 14:15:18;;;;;;;22.83;20.05;;;;;;;;;;5008107;28;20309;-75
2022/03/25 14:17:52;;;;;;;28.58;23.60;;;;;;;;;;5015518;28;20212;-76
2022/03/25 14:20:19;;;;;;;31.52;26.05;;;;;;;;;;4994712;23;20322;-76
2022/03/25 14:22:47;;;;;;;27.02;24.00;;;;;;;;;;4971511;28;20285;-76
2022/03/25 14:25:16;;;;;;;28.48;25.38;;;;;;;;;;4967083;28;20743;-76
2022/03/25 14:27:45;;;;;;;27.80;24.80;;;;;;;;;;4959992;28;20742;-76
2022/03/25 14:30:15;;;;;;;27.30;23.95;;;;;;;;;;4978257;28;20241;-74
2022/03/25 14:32:42;;;;;;;28.95;25.85;;;;;;;;;;4952278;28;20233;-74
2022/03/25 14:35:11;;;;;;;30.77;26.25;;;;;;;;;;4952352;28;20301;-74
2022/03/25 14:37:39;;;;;;;28.77;25.77;;;;;;;;;;4952699;28;20236;-76